Weather observations for the past three days for
Presidio Lely International Airport
Metric (Imperial)
Date Time (cdt) Wind (kph) Vis. (km) Weather Sky Cond. Temperature (ºC) Relative Humidity Wind Chill (°C) Heat Index (°C) Pressure Precipitation (cm)
Air Dwpt 6 hour altimeter (cm) sea level (mb) 1 hr 3 hr 6 hr
Max. Min.
07 17:55 NE 33 G 41 16.09 Fair and Breezy CLR 30.3 11.5 31% 29 75.79 0.0
07 17:35 NE 28 G 39 16.09 Fair CLR 31.2 11.6 30% 30 75.79 0.0
07 17:15 NE 31 G 43 16.09 Fair CLR 31.6 12.1 30% 30 75.82 0.0
07 16:55 NE 24 G 44 16.09 Fair CLR 31.8 11.6 29% 30 75.84 0.0
07 16:35 NE 22 G 37 16.09 Fair CLR 31.2 11.8 30% 30 75.87 0.0
07 16:15 E 26 G 37 16.09 Fair CLR 32.2 11.8 29% 31 75.87 0.0
07 15:55 E 7 16.09 Fair CLR 32.6 4.5 17% 30 75.9 0.0
07 15:35 E 15 G 26 16.09 Fair CLR 32.1 5.1 18% 30 75.92 0.0
07 15:15 E 6 16.09 Fair CLR 30.8 8.6 25% 29 75.95 0.0
07 14:55 Calm 16.09 Fair CLR 31 8.3 24% 29 76 0.0
07 14:35 Calm 16.09 Fair CLR 30.9 8.4 25% 29 76.02 0.0
07 14:15 N 11 G 28 16.09 Fair CLR 30.2 9.2 27% 29 76.02 0.0
07 13:55 SW 11 16.09 Fair CLR 29.6 8.4 27% 28 76.05 0.0
07 13:35 N 11 16.09 Fair CLR 29.2 8.4 27% 28 76.1 0.0
07 13:15 NE 11 16.09 Fair CLR 29.2 8.9 28% 28 76.12 0.0
07 12:55 SE 15 16.09 Fair CLR 29.1 9.6 29.1 20.6 30% 28 76.17 0.0
07 12:35 Calm 16.09 Fair CLR 27.5 9.2 32% 27 76.2 0.0
07 12:15 NE 15 16.09 Fair CLR 26.8 9.1 33% 26 76.2 0.0
07 11:55 NE 15 G 28 16.09 Fair CLR 27.6 7.8 29% 27 76.23 0.0
07 11:35 NE 17 G 28 16.09 Fair CLR 26.5 7.2 29% 26 76.25 0.0
07 11:15 NE 20 G 26 16.09 Fair CLR 26.1 7 30% 26 76.28 0.0
07 10:55 NE 17 16.09 Fair CLR 25.3 6 29% 25 76.3 0.0
07 10:35 NE 17 G 26 16.09 Fair CLR 25 5.1 28% 25 76.3 0.0
07 10:15 NE 15 16.09 Fair CLR 25.1 5 27% 25 76.3 0.0
07 09:55 N 17 G 26 16.09 Fair CLR 24.5 2.1 23% 25 76.28 0.0
07 09:35 N 17 G 26 16.09 Fair CLR 24.2 1.6 23% 25 76.28 0.0
07 09:15 N 17 16.09 Fair CLR 24 0 21% 25 76.28 0.0
07 08:55 N 15 16.09 Fair CLR 23.9 2 24% 25 76.28 0.0
07 08:35 N 6 16.09 Fair CLR 22.5 4.2 30% 76.25 0.0
07 08:15 Calm 16.09 Fair CLR 21.2 5 35% 76.25 0.0
07 07:55 NE 7 16.09 Fair CLR 20.9 5.5 37% 76.23 0.0
07 07:35 NE 6 16.09 Fair CLR 21 5.6 37% 76.2 0.0
07 07:15 Calm 16.09 Fair CLR 21.2 5.5 36% 76.2 0.0
07 06:55 N 9 16.09 Fair CLR 21.4 5.1 24.6 19.5 35% 76.17 0.0
07 06:35 N 7 16.09 Fair CLR 21 4.5 34% 76.17 0.0
07 06:15 N 6 16.09 Fair CLR 19.6 5.5 40% 76.17 0.0
07 05:55 Calm 16.09 Fair CLR 20.5 6 39% 76.17 0.0
07 05:35 Calm 16.09 Fair CLR 20.8 5.8 38% 76.17 0.0
07 05:15 NE 9 16.09 Fair CLR 21.9 5.5 35% 76.15 0.0
07 04:55 SE 6 16.09 Fair CLR 22 4 31% 76.15 0.0
07 04:35 N 17 16.09 Fair CLR 22.4 3.8 30% 76.12 0.0
07 04:15 N 20 16.09 Fair CLR 22.2 3.3 29% 76.1 0.0
07 03:55 N 13 16.09 Fair CLR 22 3.4 30% 76.1 0.0
07 03:35 N 9 16.09 Fair CLR 23 4.4 30% 76.12 0.0
07 03:15 N 22 G 30 16.09 Fair CLR 23.3 3.9 28% 76.12 0.0
07 02:55 N 17 16.09 Fair CLR 23.5 3.2 27% 76.12 0.0
07 02:15 NE 15 16.09 Fair CLR 24 5.7 31% 25 76.15 0.0
07 01:55 N 9 16.09 Fair CLR 24.1 5.9 31% 25 76.15 0.0
07 01:35 N 11 16.09 Fair CLR 24.5 1.8 23% 25 76.12 0.0
07 01:15 N 9 16.09 Fair CLR 23.9 -0.8 19% 24 76.12 0.0
07 00:55 N 11 16.09 Fair CLR 24.3 -1.1 31 24.3 19% 25 76.1 0.0
07 00:35 N 13 16.09 Fair CLR 24.5 -1.4 18% 25 76.1 0.0
07 00:15 N 13 16.09 Fair CLR 24.6 -1.4 18% 25 76.05 0.0
06 23:55 N 9 16.09 Fair CLR 25 -1.2 18% 25 76.05 0.0
06 23:35 N 15 16.09 Fair CLR 26.1 -1 17% 25 76.05 0.0
06 23:15 N 13 16.09 Fair CLR 24.5 -1.3 18% 25 76.05 0.0
06 22:55 N 7 16.09 Fair CLR 25.7 -1 17% 25 76.02 0.0
06 22:35 NE 9 16.09 Fair CLR 26 -1.2 17% 25 76.02 0.0
06 22:15 NE 11 16.09 Fair CLR 26.1 -1.6 16% 25 76.02 0.0
06 21:35 NE 6 16.09 Fair CLR 27.3 -1.6 15% 26 75.97 0.0
06 21:15 NE 9 16.09 Fair CLR 28 -1.6 14% 27 75.95 0.0
06 20:55 NE 6 16.09 Fair CLR 28.3 -1.7 14% 27 75.95 0.0
06 20:35 E 9 16.09 Fair CLR 29 -1.6 13% 27 75.95 0.0
06 20:15 E 11 16.09 Fair CLR 29.6 -1.5 13% 28 75.92 0.0
06 19:55 E 15 16.09 Fair CLR 30 -1.5 13% 28 75.9 0.0
06 19:35 E 15 16.09 Fair CLR 30.4 -1.4 13% 28 75.9 0.0
06 19:15 E 11 16.09 Fair CLR 30.2 -1.5 13% 28 75.87 0.0
06 18:55 E 7 16.09 Fair CLR 31 -1.7 31.1 27.2 12% 29 75.87 0.0
06 18:35 Calm 16.09 Fair CLR 31 -1.6 12% 29 75.87 0.0
06 18:15 NW 9 16.09 Fair CLR 30.9 -2.5 11% 29 75.87 0.0
06 17:55 S 6 16.09 Fair CLR 30.6 -2 12% 29 75.9 0.0
06 17:35 E 9 16.09 Fair CLR 30.7 -1.5 12% 29 75.9 0.0
06 16:55 Calm 16.09 Fair CLR 29.7 -1 14% 28 75.95 0.0
06 16:35 S 13 16.09 Fair CLR 29.8 -0.9 14% 28 75.95 0.0
06 16:15 S 6 16.09 Fair CLR 29.9 -0.7 14% 28 75.97 0.0
06 15:55 Calm 16.09 Fair CLR 29.6 -0.7 14% 28 76 0.0
06 15:35 SW 19 16.09 Fair CLR 29.8 -0.7 14% 28 76.02 0.0
06 15:15 S 7 G 30 16.09 Fair CLR 29.9 -1.1 13% 28 76.02 0.0
06 14:55 SW 9 G 30 16.09 Fair CLR 29.4 -0.8 14% 28 76.02 0.0
06 14:35 SW 11 16.09 Fair CLR 29.4 -0.5 14% 28 76.05 0.0
06 14:15 SW 11 16.09 Fair CLR 28.8 -0.3 15% 27 76.05 0.0
06 13:55 W 11 16.09 Fair CLR 28.9 0.3 16% 27 76.07 0.0
06 13:35 Calm 16.09 Fair CLR 28.1 0.5 17% 27 76.1 0.0
06 13:15 SW 22 16.09 Fair CLR 28.7 1 17% 27 76.12 0.0
06 12:55 Calm 16.09 Fair CLR 27.1 0.5 28.2 21.2 18% 26 76.12 0.0
06 12:35 W 19 16.09 Fair CLR 28.1 0.7 17% 27 76.12 0.0
06 12:15 SW 13 16.09 Fair CLR 27.7 1 18% 26 76.15 0.0
06 11:55 NW 9 16.09 Fair CLR 27.4 0.9 18% 26 76.15 0.0
06 11:35 NW 17 16.09 Fair CLR 27 1.4 19% 26 76.15 0.0
06 11:15 W 20 G 28 16.09 Fair CLR 26.6 1.5 20% 26 76.15 0.0
06 10:55 W 22 G 30 16.09 Fair CLR 26.3 1.8 20% 26 76.12 0.0
06 10:35 W 19 16.09 Fair CLR 26.1 2.1 21% 26 76.12 0.0
06 10:15 W 19 16.09 Fair CLR 25.7 2.1 22% 25 76.12 0.0
06 09:55 W 15 16.09 Fair CLR 24.5 1.7 23% 25 76.12 0.0
06 09:35 Calm 16.09 Fair CLR 23.7 1.6 23% 76.12 0.0
06 09:15 Calm 16.09 Fair CLR 23.1 1.5 24% 76.1 0.0
06 08:55 Calm 16.09 Fair CLR 22.2 1.9 26% 76.1 0.0
06 08:35 Calm 16.09 Fair CLR 21.2 2.1 28% 76.07 0.0
06 08:15 Calm 16.09 Fair CLR 22 0.9 25% 76.07 0.0
06 07:55 Calm 16.09 Fair CLR 22 1 25% 76.05 0.0
06 07:15 Calm 16.09 Fair CLR 21.6 0.8 25% 76.02 0.0
06 06:55 Calm 16.09 Fair CLR 21.7 0.7 25.8 21.2 25% 76 0.0
06 06:35 Calm 16.09 Fair CLR 21.8 0.5 24% 75.97 0.0
06 05:55 Calm 16.09 Fair CLR 21.8 0 23% 75.95 0.0
06 05:35 Calm 16.09 Fair CLR 21.6 0.4 24% 75.95 0.0
06 05:15 NW 7 16.09 Fair CLR 21.9 0 23% 75.95 0.0
06 04:55 NW 6 16.09 Fair CLR 21.8 -0.1 23% 75.9 0.0
06 04:35 NW 9 16.09 Fair CLR 22.5 -0.3 22% 75.9 0.0
06 04:15 N 6 16.09 Fair CLR 23.4 -0.5 21% 75.92 0.0
06 03:55 N 9 16.09 Fair CLR 23.2 -0.5 21% 75.9 0.0
06 03:35 N 7 16.09 Fair CLR 23.7 -0.7 20% 75.9 0.0
06 03:15 N 9 16.09 Fair CLR 24 -0.5 20% 24 75.9 0.0
06 02:55 NW 13 16.09 Fair CLR 24.9 0 19% 25 75.9 0.0
06 02:35 NW 13 16.09 Fair CLR 24.6 -0.6 19% 25 75.92 0.0
06 02:15 NW 7 16.09 Fair CLR 24.7 -0.9 18% 25 75.92 0.0
06 01:55 N 11 16.09 Fair CLR 23.9 -1.3 19% 24 75.9 0.0
06 01:35 NW 7 16.09 Fair CLR 24.8 -1 18% 25 75.9 0.0
06 01:15 N 7 16.09 Fair CLR 25.8 -1.5 16% 25 75.9 0.0
06 00:55 N 7 16.09 Fair CLR 25.5 -1.3 33.2 25 17% 25 75.87 0.0
06 00:35 Calm 16.09 Fair CLR 25.4 -1 18% 25 75.87 0.0
06 00:15 W 9 16.09 Fair CLR 26.8 -1.2 16% 26 75.87 0.0
05 23:55 W 6 16.09 Fair CLR 26.8 -1.2 16% 26 75.84 0.0
05 23:35 W 6 16.09 Fair CLR 27.1 -0.9 16% 26 75.84 0.0
05 23:15 Calm 16.09 Fair CLR 28 -1.2 15% 27 75.82 0.0
05 22:55 NW 6 16.09 Fair CLR 28.1 -1.2 15% 27 75.82 0.0
05 22:35 NW 7 16.09 Fair CLR 28.6 -1.3 14% 27 75.77 0.0
05 22:15 W 9 16.09 Fair CLR 28.9 -1.3 14% 27 75.74 0.0
05 21:35 NW 6 16.09 Fair CLR 29.8 -1.7 13% 28 75.72 0.0
05 21:15 NW 13 16.09 Fair CLR 30.1 -1.5 13% 28 75.69 0.0
05 20:55 NW 19 G 31 16.09 Fair CLR 30.3 -1.5 13% 28 75.69 0.0
05 20:35 NW 20 16.09 Fair CLR 30.5 -1.5 12% 29 75.64 0.0
05 20:15 NW 24 G 33 16.09 Fair CLR 31 -2.3 11% 29 75.62 0.0
05 19:55 NW 30 G 37 16.09 Fair CLR 31.2 -2.3 11% 29 75.62 0.0
05 19:35 NW 31 G 44 16.09 Fair CLR 31.8 -2 11% 30 75.59 0.0
05 19:15 W 26 G 33 16.09 Fair CLR 32.9 -2.5 10% 31 75.59 0.0
05 18:55 NW 15 G 26 16.09 Fair CLR 33.1 -1.7 35.1 29.3 11% 31 75.57 0.0
05 18:35 W 15 16.09 Fair CLR 33.5 -1.7 10% 31 75.57 0.0
05 18:15 NW 17 G 33 16.09 Fair CLR 33.7 -0.9 11% 31 75.57 0.0
05 17:55 W 11 16.09 Fair CLR 33.8 -3.4 9% 31 75.57 0.0
05 17:35 NW 22 G 31 16.09 Fair CLR 34.7 -2.4 9% 32 75.59 0.0
05 17:15 W 9 G 28 16.09 Fair CLR 34 -2.6 9% 31 75.59 0.0
05 16:55 S 11 G 35 16.09 Fair CLR 34.1 -1.5 10% 32 75.62 0.0
05 16:35 SE 7 G 30 16.09 Fair CLR 33.4 -1 11% 31 75.67 0.0
05 16:15 W 9 16.09 Fair CLR 33.1 0 12% 31 75.72 0.0
05 15:55 NW 6 16.09 Fair CLR 32.5 0 12% 30 75.74 0.0
05 15:35 N 11 16.09 Fair CLR 31.8 0.4 13% 30 75.77 0.0
05 15:15 NW 19 G 28 16.09 Fair CLR 32.3 0.4 13% 30 75.79 0.0
05 14:55 SW 15 16.09 Fair CLR 32 0.5 13% 30 75.79 0.0
05 14:35 Calm 16.09 Fair CLR 31.3 0.7 14% 29 75.84 0.0
05 14:15 SW 6 16.09 Fair CLR 30.7 0.9 15% 29 75.87 0.0
05 13:55 W 9 16.09 Fair CLR 29.8 0.5 15% 28 75.87 0.0
05 13:35 W 17 G 26 16.09 Fair CLR 31.1 0.8 14% 29 75.9 0.0
05 13:15 Calm 16.09 Fair CLR 29.6 0.9 16% 28 75.92 0.0
05 12:55 W 13 16.09 Fair CLR 30.2 1.1 30.2 18.4 15% 28 75.95 0.0
05 12:35 W 13 16.09 Fair CLR 29.1 1.3 17% 27 75.95 0.0
05 12:15 NW 13 G 31 16.09 Fair CLR 29.3 1.2 16% 28 75.97 0.0
05 11:55 W 11 G 31 16.09 Fair CLR 29.4 1.2 16% 28 75.95 0.0
05 11:35 W 22 G 31 16.09 Fair CLR 29 1.1 16% 27 75.97 0.0
05 11:15 W 26 G 31 16.09 Fair CLR 28.9 1.2 17% 27 75.97 0.0
05 10:55 W 24 G 31 16.09 Fair CLR 28.3 1.1 17% 27 75.97 0.0
05 10:35 W 26 G 39 16.09 Fair CLR 28.5 1 17% 27 75.97 0.0
05 10:15 W 19 G 26 16.09 Fair CLR 27.6 1.5 18% 26 75.97 0.0
05 09:55 W 7 16.09 Fair CLR 26.2 1.6 20% 26 75.95 0.0
05 09:35 W 7 16.09 Fair CLR 24.9 1.5 22% 25 75.95 0.0
05 09:15 Calm 16.09 Fair CLR 24.1 1.7 23% 25 75.95 0.0
05 08:55 Calm 16.09 Fair CLR 23.6 1.2 23% 75.9 0.0
05 08:35 Calm 16.09 Fair CLR 23 1 23% 75.9 0.0
05 08:15 N 6 16.09 Fair CLR 20.6 0.7 27% 75.87 0.0
05 07:55 N 6 16.09 Fair CLR 19.6 0.5 28% 75.84 0.0
05 07:35 Calm 16.09 Fair CLR 20.7 0.7 26% 75.84 0.0
05 07:15 Calm 16.09 Fair CLR 19 1.3 31% 75.82 0.0
05 06:55 Calm 16.09 Fair CLR 19.5 1.4 25.8 19.3 30% 75.82 0.0
05 06:35 E 6 16.09 Fair CLR 20.2 1.6 29% 75.79 0.0
05 06:15 SE 6 16.09 Fair CLR 20.2 1.6 29% 75.79 0.0
05 05:55 E 6 16.09 Fair CLR 20.6 1 27% 75.79 0.0
05 05:35 Calm 16.09 Fair CLR 20.1 0.6 27% 75.77 0.0
05 05:15 N 7 16.09 Fair CLR 21.1 0.5 25% 75.74 0.0
05 04:55 N 6 16.09 Fair CLR 20.6 0.5 26% 75.74 0.0
05 04:35 N 9 16.09 Fair CLR 21.4 0.6 25% 75.74 0.0
05 04:15 N 9 16.09 Fair CLR 21.6 0.7 25% 75.77 0.0
05 03:55 N 11 16.09 Fair CLR 21.6 0.9 25% 75.74 0.0
05 03:35 NW 6 16.09 Fair CLR 21.9 1 25% 75.77 0.0
05 03:15 Calm 16.09 Fair CLR 21.5 1.5 27% 75.77 0.0
05 02:55 Calm 16.09 Fair CLR 22.5 1.5 25% 75.77 0.0
05 02:35 Calm 16.09 Fair CLR 24 1.1 22% 25 75.79 0.0
05 02:15 W 9 16.09 Fair CLR 23.1 1.6 24% 75.79 0.0
05 01:55 SE 9 16.09 Fair CLR 24 1.6 23% 25 75.79 0.0
05 01:35 SE 9 16.09 Fair CLR 25 0.7 20% 25 75.79 0.0
05 01:15 N 11 16.09 Fair CLR 25.5 0.4 19% 25 75.77 0.0
05 00:55 N 11 16.09 Fair CLR 25.5 0.5 33.6 25.5 19% 25 75.79 0.0
05 00:35 N 11 16.09 Fair CLR 26.1 0.5 19% 26 75.79 0.0
05 00:15 N 15 16.09 Fair CLR 26.3 0.5 19% 26 75.82 0.0
04 23:55 N 15 16.09 Fair CLR 26.8 0.3 18% 26 75.79 0.0
04 23:35 N 13 16.09 Fair CLR 27.5 0.4 17% 26 75.79 0.0
04 23:15 N 13 16.09 Fair CLR 27.9 0.2 16% 27 75.79 0.0
04 22:55 N 15 16.09 Fair CLR 28.2 0 16% 27 75.79 0.0
04 22:35 N 11 16.09 Fair CLR 28.3 0.1 16% 27 75.77 0.0
04 22:15 N 13 16.09 Fair CLR 28.8 0.5 16% 27 75.74 0.0
04 21:55 N 13 16.09 Fair CLR 28.6 2.6 19% 27 75.74 0.0
04 21:35 Calm 16.09 Fair CLR 29.9 3.6 19% 28 75.72 0.0
04 21:15 Calm 16.09 Fair CLR 31.2 3.5 17% 29 75.72 0.0
04 20:55 Calm 16.09 Fair CLR 31.7 3.5 17% 30 75.72 0.0
04 20:35 SW 6 16.09 Fair CLR 32.3 3.1 16% 30 75.69 0.0
04 20:15 Calm 16.09 Fair CLR 32.7 3.4 16% 30 75.69 0.0
04 19:55 S 6 16.09 Fair CLR 33.1 3.6 15% 31 75.69 0.0
04 19:35 S 9 16.09 Fair CLR 33.1 3.9 16% 31 75.72 0.0
04 19:15 S 9 16.09 Fair CLR 33.3 4.1 16% 31 75.72 0.0
04 18:55 S 15 16.09 Fair CLR 33.6 4.4 34.4 29.4 16% 31 75.74 0.0
04 18:35 Calm 16.09 Fair CLR 33.8 4.8 16% 31 75.74 0.0
04 18:15 E 6 16.09 Fair CLR 33.3 5.1 17% 31 75.74 0.0
Date Time (cdt) Wind (kph) Vis. (km) Weather Sky Cond. Air Dwpt Max. Min. Relative Humidity Wind Chill (°C) Heat Index (°C) altimeter (cm) sea level (mb) 1 hr 3 hr 6 hr
6 hour
Temperature (ºC) Pressure Precipitation (cm)